createdAt,value
2016-07-07T17:53:24.781Z,60
2016-07-07T17:54:24.748Z,65
2016-07-07T17:55:25.959Z,60
2016-07-07T17:56:25.313Z,55
2016-07-07T17:57:24.761Z,55
2016-07-07T17:58:24.673Z,50
2016-07-07T17:59:25.291Z,50
2016-07-07T18:00:24.647Z,50
2016-07-07T18:01:25.338Z,50
2016-07-07T18:02:25.249Z,45
2016-07-07T18:03:23.987Z,45
2016-07-07T18:04:25.219Z,45
2016-07-07T18:05:25.300Z,40
2016-07-07T18:06:25.193Z,40
2016-07-07T18:07:24.627Z,40
2016-07-07T18:08:24.571Z,40
2016-07-07T18:09:24.592Z,50
2016-07-07T18:10:25.770Z,40
2016-07-07T18:11:25.761Z,40
2016-07-07T18:12:25.769Z,40
2016-07-07T18:13:24.516Z,40
2016-07-07T18:14:25.743Z,45
2016-07-07T18:15:25.170Z,50
2016-07-07T18:16:25.736Z,50
2016-07-07T18:17:24.471Z,50
2016-07-07T18:18:23.846Z,50
2016-07-07T18:19:25.102Z,50
2016-07-07T18:20:24.440Z,50
2016-07-07T18:21:25.058Z,50
2016-07-07T18:22:24.424Z,50
2016-07-07T18:23:24.422Z,45
2016-07-07T18:24:25.670Z,50
2016-07-07T18:25:23.796Z,50
2016-07-07T18:26:25.029Z,50
2016-07-07T18:27:25.732Z,50
2016-07-07T18:28:24.515Z,50
2016-07-07T18:29:25.044Z,45
2016-07-07T18:30:24.359Z,45
2016-07-07T18:31:25.590Z,45
2016-07-07T18:32:24.970Z,40
2016-07-07T18:33:24.958Z,40
2016-07-07T18:34:24.927Z,40
2016-07-07T18:35:24.287Z,40
2016-07-07T18:36:23.076Z,40
2016-07-07T18:37:25.537Z,40
2016-07-07T18:38:24.909Z,40
2016-07-07T18:39:25.567Z,35
2016-07-07T18:40:24.901Z,35
2016-07-07T18:41:24.874Z,35
2016-07-07T18:42:25.485Z,30
2016-07-07T18:43:23.616Z,30
2016-07-07T18:44:24.865Z,30
2016-07-07T18:45:24.221Z,25
2016-07-07T18:46:24.269Z,25
2016-07-07T18:47:24.280Z,25
2016-07-07T18:48:24.848Z,25
2016-07-07T18:49:23.559Z,25
2016-07-07T18:50:25.430Z,25
2016-07-07T18:51:25.424Z,25
2016-07-07T18:52:24.842Z,25
2016-07-07T18:53:24.760Z,25
2016-07-07T18:54:25.389Z,25
2016-07-07T18:55:25.489Z,25
2016-07-07T18:56:25.369Z,25
2016-07-07T18:57:24.107Z,25
2016-07-07T18:58:24.769Z,25
2016-07-07T18:59:24.735Z,20
2016-07-07T19:00:25.350Z,20
2016-07-07T19:01:23.456Z,20
2016-07-07T19:02:24.769Z,20
2016-07-07T19:03:24.680Z,20
2016-07-07T19:04:24.054Z,15
2016-07-07T19:05:24.679Z,15
2016-07-07T19:06:24.646Z,15
2016-07-07T19:07:24.030Z,10
2016-07-07T19:08:23.404Z,10
2016-07-07T19:09:25.269Z,10
2016-07-07T19:10:24.008Z,10
2016-07-07T19:11:24.609Z,10
2016-07-07T19:12:24.615Z,10
2016-07-07T19:13:25.238Z,10
2016-07-07T19:14:23.334Z,5
2016-07-07T19:15:25.190Z,5
2016-07-07T19:16:25.184Z,5
2016-07-07T19:17:25.180Z,5
2016-07-07T19:18:24.557Z,5
2016-07-07T19:19:24.567Z,5
2016-07-07T19:20:24.533Z,5
2016-07-07T19:21:24.520Z,5
2016-07-07T19:22:23.888Z,5
2016-07-07T19:23:23.879Z,5
2016-07-07T19:24:25.112Z,5
2016-07-07T19:25:25.108Z,5
2016-07-07T19:26:23.848Z,5
2016-07-07T19:27:25.110Z,5
2016-07-07T19:28:25.078Z,5
2016-07-07T19:29:23.892Z,5
2016-07-07T19:30:24.439Z,0
2016-07-07T19:31:24.460Z,0
2016-07-07T19:32:24.429Z,0
2016-07-07T19:33:25.015Z,0
2016-07-07T19:34:24.409Z,0
2016-07-07T19:35:24.440Z,0
2016-07-07T19:36:23.130Z,0
2016-07-07T19:37:23.769Z,0
2016-07-07T19:38:23.712Z,0
2016-07-07T19:39:24.357Z,0
2016-07-07T19:40:23.708Z,0
2016-07-07T19:41:23.718Z,0
2016-07-07T19:42:24.958Z,0
2016-07-07T19:43:24.314Z,0
2016-07-07T19:44:24.296Z,0
2016-07-07T19:45:23.675Z,0
2016-07-07T19:46:24.285Z,0
2016-07-07T19:47:23.658Z,0
2016-07-07T19:48:24.919Z,0
2016-07-07T19:49:24.266Z,0
2016-07-07T19:50:23.614Z,0
2016-07-07T19:51:24.243Z,0
2016-07-07T19:52:23.605Z,0
2016-07-07T19:53:24.266Z,0
2016-07-07T19:54:24.208Z,0
2016-07-07T19:55:23.586Z,0
2016-07-07T19:56:23.556Z,0
2016-07-07T19:57:24.808Z,0
2016-07-07T19:58:23.595Z,0
2016-07-07T19:59:22.908Z,0
2016-07-07T20:00:24.206Z,0
2016-07-07T20:01:24.130Z,0
2016-07-07T20:02:24.177Z,0
2016-07-07T20:03:24.169Z,0
2016-07-07T20:04:22.855Z,0
2016-07-07T20:05:24.092Z,0
2016-07-07T20:06:23.466Z,0
2016-07-07T20:07:22.833Z,0
2016-07-07T20:08:23.448Z,0
2016-07-07T20:09:24.687Z,0
2016-07-07T20:10:24.673Z,0
2016-07-07T20:11:23.415Z,0
2016-07-07T20:12:23.419Z,0
2016-07-07T20:13:23.381Z,0
2016-07-07T20:14:23.444Z,0
2016-07-07T20:15:23.988Z,0
2016-07-07T20:16:23.982Z,0
2016-07-07T20:17:23.974Z,0
2016-07-07T20:18:23.971Z,0
2016-07-07T20:19:23.333Z,0
2016-07-07T20:20:23.942Z,0
2016-07-07T20:21:23.918Z,0
2016-07-07T20:22:23.927Z,0
2016-07-07T20:23:23.927Z,0
2016-07-07T20:24:23.899Z,0
2016-07-07T20:25:24.526Z,0
2016-07-07T20:26:23.277Z,0
2016-07-07T20:27:23.872Z,0
2016-07-07T20:28:23.263Z,0
2016-07-07T20:29:23.847Z,0
2016-07-07T20:30:24.466Z,0
2016-07-07T20:31:22.596Z,0
2016-07-07T20:32:23.845Z,0
2016-07-07T20:33:23.795Z,0
2016-07-07T20:34:23.178Z,0
2016-07-07T20:35:24.417Z,0
2016-07-07T20:36:23.830Z,0
2016-07-07T20:37:23.772Z,0
2016-07-07T20:38:24.389Z,0
2016-07-07T20:39:22.509Z,0
2016-07-07T20:40:24.416Z,0
2016-07-07T20:41:23.738Z,0
2016-07-07T20:42:24.357Z,0
2016-07-07T20:43:23.114Z,0
2016-07-07T20:44:23.084Z,0
2016-07-07T20:45:24.314Z,0
2016-07-07T20:46:23.679Z,0
2016-07-07T20:47:23.053Z,0
2016-07-07T20:48:23.635Z,0
2016-07-07T20:49:23.066Z,0
2016-07-07T20:50:24.302Z,0
2016-07-07T20:51:23.627Z,0
2016-07-07T20:52:22.994Z,0
2016-07-07T20:53:23.027Z,0
2016-07-07T20:54:24.268Z,0
2016-07-07T20:55:23.583Z,0
2016-07-07T20:56:23.615Z,0
2016-07-07T20:57:23.575Z,0
2016-07-07T20:58:22.968Z,0
2016-07-07T20:59:24.155Z,0
2016-07-07T21:00:22.908Z,0
2016-07-07T21:01:22.915Z,0
2016-07-07T21:02:23.506Z,0
2016-07-07T21:03:23.585Z,0
2016-07-07T21:04:21.617Z,0
2016-07-07T21:05:24.095Z,0
2016-07-07T21:06:23.465Z,0
2016-07-07T21:07:23.499Z,0
2016-07-07T21:08:24.069Z,0
2016-07-07T21:09:24.079Z,0
2016-07-07T21:10:22.808Z,0
2016-07-07T21:11:24.034Z,0
2016-07-07T21:12:23.408Z,0
2016-07-07T21:13:24.026Z,0
2016-07-07T21:14:22.137Z,0
2016-07-07T21:15:22.751Z,0
2016-07-07T21:16:22.732Z,0
2016-07-07T21:17:23.353Z,0
2016-07-07T21:18:22.109Z,0
2016-07-07T21:19:22.718Z,0
2016-07-07T21:20:23.406Z,0
2016-07-07T21:21:23.946Z,0
2016-07-07T21:22:22.063Z,0
2016-07-07T21:23:23.927Z,0
2016-07-07T21:24:22.035Z,0
2016-07-07T21:25:22.685Z,0
2016-07-07T21:26:22.649Z,0
2016-07-07T21:27:21.996Z,0
2016-07-07T21:28:22.626Z,0
2016-07-07T21:29:23.264Z,0
2016-07-07T21:30:23.212Z,0
2016-07-07T21:31:23.854Z,0
2016-07-07T21:32:22.567Z,0
2016-07-07T21:33:23.807Z,0
2016-07-07T21:34:23.197Z,0
2016-07-07T21:35:23.190Z,0
2016-07-07T21:36:21.916Z,0
2016-07-07T21:37:23.761Z,0
2016-07-07T21:38:23.127Z,0
2016-07-07T21:39:23.187Z,0
2016-07-07T21:40:23.108Z,0
2016-07-07T21:41:22.497Z,0
2016-07-07T21:42:23.087Z,0
2016-07-07T21:43:23.078Z,0
2016-07-07T21:44:23.676Z,0
2016-07-07T21:45:23.695Z,0
2016-07-07T21:46:23.655Z,0
2016-07-07T21:47:22.419Z,0
2016-07-07T21:48:23.636Z,0
2016-07-07T21:49:22.442Z,0
2016-07-07T21:50:23.096Z,0
2016-07-07T21:51:21.738Z,0
2016-07-07T21:52:23.616Z,0
2016-07-07T21:53:23.618Z,0
2016-07-07T21:54:23.577Z,0
2016-07-07T21:55:23.562Z,0
2016-07-07T21:56:22.941Z,0
2016-07-07T21:57:22.906Z,0
2016-07-07T21:58:22.288Z,0
2016-07-07T21:59:23.527Z,0
2016-07-07T22:00:23.508Z,0
2016-07-07T22:01:23.500Z,0
2016-07-07T22:02:21.615Z,0
2016-07-07T22:03:22.252Z,0
2016-07-07T22:04:22.846Z,0
2016-07-07T22:05:22.212Z,0
2016-07-07T22:06:22.224Z,0
2016-07-07T22:07:23.433Z,0
2016-07-07T22:08:23.461Z,0
2016-07-07T22:09:22.188Z,0
2016-07-07T22:10:22.217Z,0
2016-07-07T22:11:23.470Z,0
2016-07-07T22:12:22.768Z,0
2016-07-07T22:13:22.156Z,0
2016-07-07T22:14:22.128Z,0
2016-07-07T22:15:22.732Z,0
2016-07-07T22:16:22.102Z,0
2016-07-07T22:17:22.697Z,0
2016-07-07T22:18:21.447Z,0
2016-07-07T22:19:22.688Z,0
2016-07-07T22:20:22.741Z,0
2016-07-07T22:21:23.327Z,0
2016-07-07T22:22:22.669Z,0
2016-07-07T22:23:22.637Z,0
2016-07-07T22:24:22.596Z,0
2016-07-07T22:25:22.720Z,0
2016-07-07T22:26:22.017Z,0
2016-07-07T22:27:21.368Z,0
2016-07-07T22:28:23.249Z,0
2016-07-07T22:29:22.559Z,0
2016-07-07T22:30:22.550Z,0
2016-07-07T22:31:22.751Z,0
2016-07-07T22:32:22.543Z,0
2016-07-07T22:33:21.898Z,0
2016-07-07T22:34:23.127Z,0
2016-07-07T22:35:22.511Z,0
2016-07-07T22:36:21.887Z,0
2016-07-07T22:37:23.108Z,0
2016-07-07T22:38:21.861Z,0
2016-07-07T22:39:22.464Z,0
2016-07-07T22:40:21.814Z,0
2016-07-07T22:41:22.429Z,0
2016-07-07T22:42:21.801Z,0
2016-07-07T22:43:22.477Z,0
2016-07-07T22:44:23.017Z,0
2016-07-07T22:45:23.016Z,0
2016-07-07T22:46:22.419Z,0
2016-07-07T22:47:22.376Z,0
2016-07-07T22:48:22.361Z,0
2016-07-07T22:49:21.091Z,0
2016-07-07T22:50:22.341Z,0
2016-07-07T22:51:22.335Z,0
2016-07-07T22:52:22.334Z,0
2016-07-07T22:53:21.701Z,0
2016-07-07T22:54:22.903Z,0
2016-07-07T22:55:21.661Z,0
2016-07-07T22:56:21.000Z,0
2016-07-07T22:57:22.873Z,0
2016-07-07T22:58:22.237Z,0
2016-07-07T22:59:22.229Z,0
2016-07-07T23:00:22.205Z,0
2016-07-07T23:01:22.833Z,0
2016-07-07T23:02:22.206Z,0
2016-07-07T23:03:21.560Z,0
2016-07-07T23:04:22.794Z,0
2016-07-07T23:05:21.577Z,0
2016-07-07T23:06:22.207Z,0
2016-07-07T23:07:20.907Z,0
2016-07-07T23:08:22.790Z,0
2016-07-07T23:09:21.487Z,0
2016-07-07T23:10:22.121Z,0
2016-07-07T23:11:22.715Z,0
2016-07-07T23:12:22.720Z,0
2016-07-07T23:13:22.058Z,0
2016-07-07T23:14:22.059Z,0
2016-07-07T23:15:21.410Z,0
2016-07-07T23:16:22.671Z,0
2016-07-07T23:17:21.389Z,0
2016-07-07T23:18:22.647Z,0
2016-07-07T23:19:21.993Z,0
2016-07-07T23:20:22.605Z,0
2016-07-07T23:21:21.969Z,0
2016-07-07T23:22:21.329Z,0
2016-07-07T23:23:21.959Z,0
2016-07-07T23:24:20.710Z,0
2016-07-07T23:25:21.903Z,0
2016-07-07T23:26:21.319Z,0
2016-07-07T23:27:22.519Z,0
2016-07-07T23:28:20.637Z,0
2016-07-07T23:29:21.254Z,0
2016-07-07T23:30:22.491Z,0
2016-07-07T23:31:21.856Z,0
2016-07-07T23:32:21.230Z,0
2016-07-07T23:33:21.201Z,0
2016-07-07T23:34:21.807Z,0
2016-07-07T23:35:21.810Z,0
2016-07-07T23:36:21.172Z,0
2016-07-07T23:37:22.400Z,0
2016-07-07T23:38:21.167Z,0
2016-07-07T23:39:21.769Z,0
2016-07-07T23:40:22.371Z,0
2016-07-07T23:41:22.368Z,0
2016-07-07T23:42:21.739Z,0
2016-07-07T23:43:22.328Z,0
2016-07-07T23:44:21.682Z,0
2016-07-07T23:45:21.688Z,0
2016-07-07T23:46:21.671Z,0
2016-07-07T23:47:21.729Z,0
2016-07-07T23:48:22.269Z,0
2016-07-07T23:49:21.651Z,0
2016-07-07T23:50:22.296Z,0
2016-07-07T23:51:22.298Z,0
2016-07-07T23:52:21.577Z,0
2016-07-07T23:53:22.217Z,0
2016-07-07T23:54:22.211Z,0
2016-07-07T23:55:21.569Z,0
2016-07-07T23:56:21.548Z,0
2016-07-07T23:57:21.530Z,0
2016-07-07T23:58:22.143Z,0
2016-07-07T23:59:21.530Z,0
